createdAt,value
2023-03-02T00:02:21.417Z,62.57
2023-03-02T00:05:24.578Z,62.42
2023-03-02T00:08:28.724Z,62.29
2023-03-02T00:11:32.323Z,62.01
2023-03-02T00:14:34.334Z,62.88
2023-03-02T00:17:37.414Z,61.42
2023-03-02T00:20:39.427Z,61.50
2023-03-02T00:23:41.549Z,62.42
2023-03-02T00:26:43.670Z,62.53
2023-03-02T00:29:46.295Z,63.06
2023-03-02T00:32:49.252Z,62.29
2023-03-02T00:35:51.784Z,62.06
2023-03-02T00:38:53.911Z,62.09
2023-03-02T00:41:58.222Z,63.51
2023-03-02T00:45:02.256Z,63.45
2023-03-02T00:48:05.727Z,63.43
2023-03-02T00:51:08.550Z,63.20
2023-03-02T00:54:10.786Z,62.05
2023-03-02T00:57:13.089Z,61.18
2023-03-02T01:00:16.875Z,61.68
2023-03-02T01:03:22.257Z,61.19
2023-03-02T01:06:24.392Z,61.49
2023-03-02T01:09:26.585Z,60.68
2023-03-02T01:12:28.630Z,61.08
2023-03-02T01:15:30.803Z,61.10
2023-03-02T01:18:36.272Z,61.33
2023-03-02T01:21:38.309Z,61.05
2023-03-02T01:24:40.739Z,61.43
2023-03-02T01:27:43.153Z,61.70
2023-03-02T01:30:45.246Z,61.28
2023-03-02T01:33:47.221Z,62.56
2023-03-02T01:36:49.347Z,61.51
2023-03-02T01:39:53.014Z,61.23
2023-03-02T01:43:02.558Z,60.65
2023-03-02T01:46:13.080Z,61.75
2023-03-02T01:49:20.645Z,61.37
2023-03-02T01:52:35.184Z,61.73
2023-03-02T01:55:39.802Z,60.96
2023-03-02T01:58:42.681Z,60.61
2023-03-02T02:01:50.653Z,60.74
2023-03-02T02:04:54.903Z,61.22
2023-03-02T02:07:57.096Z,62.05
2023-03-02T02:11:01.370Z,62.27
2023-03-02T02:14:04.168Z,62.43
2023-03-02T02:17:06.268Z,62.45
2023-03-02T02:20:45.103Z,62.75
2023-03-02T02:23:57.517Z,61.66
2023-03-02T02:27:00.385Z,61.79
2023-03-02T02:30:06.490Z,61.43
2023-03-02T02:33:16.579Z,60.99
2023-03-02T02:36:34.575Z,60.74
2023-03-02T02:39:46.358Z,61.50
2023-03-02T02:42:52.936Z,61.14
2023-03-02T02:46:00.715Z,60.98
2023-03-02T02:49:04.558Z,62.02
2023-03-02T02:52:07.418Z,61.96
2023-03-02T02:55:16.248Z,61.55
2023-03-02T02:58:33.147Z,62.31
2023-03-02T03:01:35.930Z,61.10
2023-03-02T03:04:38.423Z,61.06
2023-03-02T03:07:43.488Z,60.61
2023-03-02T03:10:45.994Z,60.79
2023-03-02T03:13:48.187Z,60.35
2023-03-02T03:16:51.105Z,60.32
2023-03-02T03:19:53.472Z,60.30
2023-03-02T03:22:55.797Z,60.34
2023-03-02T03:25:57.918Z,59.99
2023-03-02T03:29:00.296Z,60.11
2023-03-02T03:32:05.081Z,60.79
2023-03-02T03:35:12.768Z,60.83
2023-03-02T03:38:14.962Z,60.80
2023-03-02T03:41:18.116Z,60.27
2023-03-02T03:44:20.505Z,60.17
2023-03-02T03:47:23.711Z,60.38
2023-03-02T03:50:27.256Z,60.68
2023-03-02T03:53:29.462Z,59.92
2023-03-02T03:56:37.853Z,60.31
2023-03-02T03:59:40.025Z,59.72
2023-03-02T04:02:42.532Z,59.32
2023-03-02T04:05:47.485Z,59.38
2023-03-02T04:08:50.243Z,59.79
2023-03-02T04:11:55.108Z,59.74
2023-03-02T04:14:57.559Z,59.24
2023-03-02T04:18:01.438Z,59.36
2023-03-02T04:21:03.947Z,59.89
2023-03-02T04:24:08.952Z,59.83
2023-03-02T04:27:11.902Z,60.00
2023-03-02T04:30:16.210Z,60.36
2023-03-02T04:33:18.225Z,63.67
2023-03-02T04:36:20.561Z,78.98
2023-03-02T04:39:24.325Z,81.11
2023-03-02T04:42:27.633Z,81.95
2023-03-02T04:45:33.422Z,82.67
2023-03-02T04:48:35.528Z,81.62
2023-03-02T04:51:40.774Z,83.36
2023-03-02T04:54:42.900Z,85.82
2023-03-02T04:57:45.323Z,92.30
2023-03-02T05:00:47.382Z,96.49
2023-03-02T05:03:49.763Z,97.23
2023-03-02T05:06:52.279Z,96.30
2023-03-02T05:09:54.292Z,98.67
2023-03-02T05:13:02.526Z,98.72
2023-03-02T05:16:05.105Z,96.49
2023-03-02T05:19:08.797Z,96.43
2023-03-02T05:22:10.878Z,95.92
2023-03-02T05:25:13.167Z,96.77
2023-03-02T05:28:15.191Z,96.48
2023-03-02T05:31:29.387Z,97.20
2023-03-02T05:34:31.484Z,94.08
2023-03-02T05:37:34.919Z,89.39
2023-03-02T05:40:36.968Z,85.54
2023-03-02T05:43:39.266Z,83.82
2023-03-02T05:46:41.797Z,84.36
2023-03-02T05:49:44.218Z,82.55
2023-03-02T05:52:46.849Z,80.93
2023-03-02T05:55:49.280Z,80.67
2023-03-02T05:58:51.510Z,84.53
2023-03-02T06:01:59.126Z,83.52
2023-03-02T06:05:01.634Z,81.80
2023-03-02T06:08:06.555Z,82.61
2023-03-02T06:11:09.175Z,82.81
2023-03-02T06:14:11.223Z,78.27
2023-03-02T06:17:13.978Z,76.80
2023-03-02T06:20:16.746Z,78.73
2023-03-02T06:23:19.086Z,79.99
2023-03-02T06:26:21.125Z,80.72
2023-03-02T06:29:23.276Z,77.06
2023-03-02T06:32:25.256Z,75.96
2023-03-02T06:35:27.518Z,75.77
2023-03-02T06:38:29.643Z,75.84
2023-03-02T06:41:33.919Z,75.25
2023-03-02T06:44:36.219Z,76.22
2023-03-02T06:47:38.729Z,78.04
2023-03-02T06:50:40.754Z,77.78
2023-03-02T06:53:42.985Z,77.99
2023-03-02T06:56:45.007Z,75.55
2023-03-02T06:59:47.005Z,75.09
2023-03-02T07:02:51.408Z,74.65
2023-03-02T07:05:54.278Z,73.35
2023-03-02T07:08:58.691Z,74.22
2023-03-02T07:12:01.030Z,73.79
2023-03-02T07:15:04.059Z,74.48
2023-03-02T07:18:06.394Z,72.43
2023-03-02T07:21:08.621Z,72.24
2023-03-02T07:24:10.626Z,71.57
2023-03-02T07:27:12.784Z,71.34
2023-03-02T07:30:15.409Z,70.88
2023-03-02T07:33:17.480Z,68.72
2023-03-02T07:36:19.853Z,72.50
2023-03-02T07:39:22.103Z,73.62
2023-03-02T07:42:24.136Z,74.17
2023-03-02T07:45:30.969Z,76.04
2023-03-02T07:48:33.879Z,77.72
2023-03-02T07:51:36.024Z,80.45
2023-03-02T07:54:38.062Z,82.73
2023-03-02T07:57:40.823Z,84.33
2023-03-02T08:00:42.848Z,84.10
2023-03-02T08:03:44.978Z,88.91
2023-03-02T08:06:47.260Z,93.80
2023-03-02T08:09:49.259Z,95.26
2023-03-02T08:12:51.340Z,98.92
2023-03-02T08:16:00.698Z,100.00
2023-03-02T08:19:02.883Z,100.00
2023-03-02T08:22:05.147Z,100.00
2023-03-02T08:25:07.604Z,90.36
2023-03-02T08:28:09.684Z,89.72
2023-03-02T08:31:13.097Z,91.74
2023-03-02T08:34:17.624Z,93.26
2023-03-02T08:37:19.988Z,93.22
2023-03-02T08:40:21.997Z,90.16
2023-03-02T08:43:25.642Z,94.60
2023-03-02T08:46:28.073Z,93.59
2023-03-02T08:49:30.111Z,95.65
2023-03-02T08:52:34.567Z,92.34
2023-03-02T08:55:37.097Z,85.40
2023-03-02T08:58:39.033Z,81.82
2023-03-02T09:01:41.809Z,81.77
2023-03-02T09:04:44.131Z,80.83
2023-03-02T09:07:46.224Z,80.07
2023-03-02T09:10:48.298Z,77.44
2023-03-02T09:13:51.411Z,77.77
2023-03-02T09:16:54.046Z,77.49
2023-03-02T09:19:56.230Z,76.76
2023-03-02T09:22:58.311Z,76.64
2023-03-02T09:26:01.452Z,75.57
2023-03-02T09:29:03.539Z,75.27
2023-03-02T09:32:05.715Z,73.06
2023-03-02T09:35:08.266Z,71.26
2023-03-02T09:38:16.122Z,70.25
2023-03-02T09:41:18.290Z,69.67
2023-03-02T09:44:52.791Z,69.01
2023-03-02T09:48:06.689Z,68.60
2023-03-02T09:51:31.889Z,68.07
2023-03-02T09:54:35.239Z,68.00
2023-03-02T09:57:40.047Z,68.18
2023-03-02T10:00:44.236Z,66.86
2023-03-02T10:03:56.527Z,66.50
2023-03-02T10:07:11.072Z,65.75
2023-03-02T10:10:36.144Z,65.55
2023-03-02T10:13:59.245Z,65.77
2023-03-02T10:17:36.106Z,66.91
2023-03-02T10:20:44.189Z,64.99
2023-03-02T10:23:57.384Z,64.91
2023-03-02T10:27:12.392Z,66.33
2023-03-02T10:30:20.288Z,67.56
2023-03-02T10:33:22.686Z,68.46
2023-03-02T10:36:28.555Z,67.42
2023-03-02T10:39:40.483Z,66.53
2023-03-02T10:42:42.677Z,69.01
2023-03-02T10:45:45.362Z,70.22
2023-03-02T10:49:01.442Z,71.82
2023-03-02T10:52:12.903Z,69.74
2023-03-02T10:55:15.779Z,68.93
2023-03-02T10:58:31.317Z,69.74
2023-03-02T11:01:33.354Z,69.92
2023-03-02T11:04:35.462Z,70.74
2023-03-02T11:07:37.552Z,70.95
2023-03-02T11:10:51.619Z,70.74
2023-03-02T11:13:56.041Z,67.82
2023-03-02T11:17:01.867Z,65.90
2023-03-02T11:20:13.792Z,65.95
2023-03-02T11:23:41.744Z,65.59
2023-03-02T11:26:54.634Z,64.43
2023-03-02T11:30:01.300Z,63.73
2023-03-02T11:33:19.932Z,63.84
2023-03-02T11:36:37.548Z,62.67
2023-03-02T11:39:57.638Z,61.99
2023-03-02T11:43:02.033Z,63.83
2023-03-02T11:46:16.964Z,64.38
2023-03-02T11:49:43.636Z,61.41
2023-03-02T11:53:01.261Z,59.07
2023-03-02T11:56:04.344Z,56.74
2023-03-02T11:59:15.048Z,58.28
2023-03-02T12:02:20.811Z,56.86
2023-03-02T12:05:29.135Z,54.84
2023-03-02T12:08:40.743Z,54.26
2023-03-02T12:11:55.137Z,53.78
2023-03-02T12:14:57.215Z,52.72
2023-03-02T12:18:02.927Z,53.01
2023-03-02T12:21:09.349Z,53.34
2023-03-02T12:24:29.633Z,53.99
2023-03-02T12:27:40.445Z,52.97
2023-03-02T12:30:42.785Z,52.96
2023-03-02T12:33:48.581Z,53.38
2023-03-02T12:36:56.151Z,52.74
2023-03-02T12:40:25.909Z,54.16
2023-03-02T12:43:33.382Z,53.68
2023-03-02T12:46:37.493Z,53.74
2023-03-02T12:49:50.302Z,53.31
2023-03-02T12:53:04.705Z,53.10
2023-03-02T12:56:09.123Z,54.76
2023-03-02T12:59:28.533Z,55.00
2023-03-02T13:02:34.601Z,55.23
2023-03-02T13:05:37.411Z,55.51
2023-03-02T13:08:40.317Z,55.84
2023-03-02T13:11:44.329Z,56.21
2023-03-02T13:14:52.400Z,55.04
2023-03-02T13:17:57.043Z,54.08
2023-03-02T13:21:00.808Z,50.06
2023-03-02T13:24:03.246Z,46.17
2023-03-02T13:27:08.213Z,47.38
2023-03-02T13:30:21.876Z,49.66
2023-03-02T13:33:25.509Z,49.05
2023-03-02T13:36:31.280Z,49.30
2023-03-02T13:39:33.466Z,48.28
2023-03-02T13:42:39.459Z,47.58
2023-03-02T13:45:52.781Z,47.69
2023-03-02T13:49:07.448Z,47.68
2023-03-02T13:52:30.547Z,48.19
2023-03-02T13:55:33.939Z,45.57
2023-03-02T13:58:38.951Z,45.11
2023-03-02T14:01:44.286Z,45.03
2023-03-02T14:04:46.587Z,44.58
2023-03-02T14:07:48.990Z,42.66
2023-03-02T14:10:54.015Z,42.04
2023-03-02T14:13:56.087Z,44.01
2023-03-02T14:16:58.262Z,45.80
2023-03-02T14:20:00.659Z,47.46
2023-03-02T14:23:06.879Z,49.52
2023-03-02T14:26:19.423Z,50.16
2023-03-02T14:29:31.265Z,50.67
2023-03-02T14:32:33.357Z,50.43
2023-03-02T14:35:36.492Z,53.36
2023-03-02T14:38:38.660Z,55.30
2023-03-02T14:41:53.013Z,55.57
2023-03-02T14:44:56.029Z,56.23
2023-03-02T14:47:58.105Z,56.16
2023-03-02T14:51:04.217Z,57.44
2023-03-02T14:54:13.061Z,56.89
2023-03-02T14:57:25.254Z,57.60
2023-03-02T15:00:27.747Z,57.28
2023-03-02T15:03:30.018Z,57.72
2023-03-02T15:06:37.433Z,58.03
2023-03-02T15:09:45.776Z,59.38
2023-03-02T15:12:48.040Z,58.96
2023-03-02T15:15:50.346Z,59.39
2023-03-02T15:18:53.427Z,59.52
2023-03-02T15:21:56.436Z,59.54
2023-03-02T15:24:58.518Z,60.81
2023-03-02T15:28:00.471Z,61.25
2023-03-02T15:31:14.595Z,62.28
2023-03-02T15:34:16.832Z,63.12
2023-03-02T15:37:18.882Z,65.56
2023-03-02T15:40:20.783Z,64.08
2023-03-02T15:43:26.039Z,65.91
2023-03-02T15:46:28.250Z,65.95
2023-03-02T15:49:32.896Z,65.62
2023-03-02T15:52:35.089Z,64.52
2023-03-02T15:55:40.736Z,64.86
2023-03-02T15:58:49.811Z,65.22
2023-03-02T16:01:52.105Z,64.36
2023-03-02T16:04:54.558Z,64.62
2023-03-02T16:07:56.646Z,63.56
2023-03-02T16:11:03.519Z,62.72
2023-03-02T16:14:05.655Z,63.71
2023-03-02T16:17:07.734Z,63.09
2023-03-02T16:20:10.523Z,62.95
2023-03-02T16:23:12.764Z,62.47
2023-03-02T16:26:17.206Z,61.77
2023-03-02T16:29:19.210Z,63.50
2023-03-02T16:32:22.313Z,61.41
2023-03-02T16:35:24.530Z,61.97
2023-03-02T16:38:26.810Z,62.92
2023-03-02T16:41:28.969Z,65.13
2023-03-02T16:44:32.179Z,64.24
2023-03-02T16:47:34.262Z,64.29
2023-03-02T16:50:36.266Z,65.71
2023-03-02T16:53:40.836Z,64.52
2023-03-02T16:56:47.422Z,64.64
2023-03-02T16:59:52.178Z,63.85
2023-03-02T17:02:54.588Z,63.79
2023-03-02T17:05:56.620Z,62.19
2023-03-02T17:08:58.866Z,62.70
2023-03-02T17:12:00.924Z,62.67
2023-03-02T17:15:12.583Z,62.67
2023-03-02T17:18:15.534Z,61.48
2023-03-02T17:21:19.238Z,62.13
2023-03-02T17:24:21.317Z,61.53
2023-03-02T17:27:26.025Z,60.94
2023-03-02T17:30:28.369Z,60.48
2023-03-02T17:33:30.499Z,60.17
2023-03-02T17:36:35.024Z,60.55
2023-03-02T17:39:39.051Z,62.54
2023-03-02T17:43:31.068Z,62.61
2023-03-02T17:46:35.307Z,63.59
2023-03-02T17:49:43.748Z,63.79
2023-03-02T17:52:47.309Z,62.88
2023-03-02T17:55:49.694Z,62.11
2023-03-02T17:59:15.052Z,61.65
2023-03-02T18:02:23.080Z,61.38
2023-03-02T18:05:25.810Z,60.78
2023-03-02T18:08:28.406Z,60.90
2023-03-02T18:11:30.595Z,61.42
2023-03-02T18:14:32.560Z,60.83
2023-03-02T18:17:34.589Z,62.04
2023-03-02T18:20:36.909Z,61.27
2023-03-02T18:23:40.952Z,61.49
2023-03-02T18:26:43.322Z,61.93
2023-03-02T18:29:45.344Z,61.91
2023-03-02T18:32:47.884Z,62.56
2023-03-02T18:35:49.995Z,60.81
2023-03-02T18:38:53.490Z,61.83
2023-03-02T18:41:55.854Z,61.62
2023-03-02T18:44:58.815Z,60.53
2023-03-02T18:48:01.502Z,60.71
2023-03-02T18:51:24.233Z,60.25
2023-03-02T18:54:26.305Z,60.31
2023-03-02T18:57:28.394Z,60.41
2023-03-02T19:00:30.783Z,60.88
2023-03-02T19:03:35.396Z,60.40
2023-03-02T19:06:37.563Z,60.17
2023-03-02T19:09:39.575Z,59.85
2023-03-02T19:12:44.204Z,59.22
2023-03-02T19:15:47.186Z,58.67
2023-03-02T19:18:50.797Z,60.24
2023-03-02T19:21:55.807Z,59.52
2023-03-02T19:24:59.220Z,59.37
2023-03-02T19:28:05.163Z,58.54
2023-03-02T19:31:12.896Z,58.77
2023-03-02T19:34:15.733Z,58.55
2023-03-02T19:37:18.001Z,58.75
2023-03-02T19:40:22.907Z,59.29
2023-03-02T19:43:26.131Z,58.35
2023-03-02T19:46:32.766Z,58.32
2023-03-02T19:49:45.645Z,59.48
2023-03-02T19:52:48.111Z,59.06
2023-03-02T19:55:51.804Z,59.83
2023-03-02T19:58:55.603Z,59.40
2023-03-02T20:01:59.625Z,59.46
2023-03-02T20:05:06.801Z,60.40
2023-03-02T20:08:12.043Z,59.86
2023-03-02T20:11:15.972Z,59.75
2023-03-02T20:14:32.870Z,60.06
2023-03-02T20:17:37.773Z,60.52
2023-03-02T20:20:41.915Z,60.34
2023-03-02T20:23:50.003Z,59.98
2023-03-02T20:26:55.123Z,60.17
2023-03-02T20:29:57.259Z,60.61
2023-03-02T20:33:06.373Z,61.10
2023-03-02T20:36:12.441Z,61.05
2023-03-02T20:39:28.808Z,60.45
2023-03-02T20:42:34.459Z,61.61
2023-03-02T20:45:36.516Z,61.88
2023-03-02T20:48:39.056Z,61.65
2023-03-02T20:51:43.374Z,62.50
2023-03-02T20:55:26.238Z,62.74
2023-03-02T20:58:41.713Z,63.55
2023-03-02T21:01:46.275Z,63.38
2023-03-02T21:04:48.446Z,63.41
2023-03-02T21:07:51.459Z,63.74
2023-03-02T21:10:53.528Z,63.29
2023-03-02T21:13:56.856Z,63.73
2023-03-02T21:17:00.343Z,64.05
2023-03-02T21:20:02.756Z,63.21
2023-03-02T21:23:05.516Z,63.19
2023-03-02T21:26:09.726Z,62.67
2023-03-02T21:29:13.312Z,62.29
2023-03-02T21:32:15.742Z,63.10
2023-03-02T21:35:20.457Z,63.85
2023-03-02T21:38:22.480Z,63.42
2023-03-02T21:41:24.785Z,62.90
2023-03-02T21:44:26.837Z,62.65
2023-03-02T21:47:28.964Z,62.64
2023-03-02T21:50:34.078Z,62.25
2023-03-02T21:53:36.689Z,61.41
2023-03-02T21:56:39.184Z,61.25
2023-03-02T21:59:41.177Z,61.79
2023-03-02T22:02:43.485Z,60.94
2023-03-02T22:05:45.670Z,61.32
2023-03-02T22:08:47.880Z,61.18
2023-03-02T22:11:50.693Z,61.20
2023-03-02T22:14:54.204Z,60.88
2023-03-02T22:17:56.762Z,61.60
2023-03-02T22:20:59.116Z,61.10
2023-03-02T22:24:26.269Z,60.93
2023-03-02T22:27:31.993Z,60.98
2023-03-02T22:30:34.028Z,60.66
2023-03-02T22:33:37.125Z,60.94
2023-03-02T22:36:39.219Z,60.06
2023-03-02T22:39:42.352Z,59.74
2023-03-02T22:42:44.589Z,60.57
2023-03-02T22:45:46.644Z,59.75
2023-03-02T22:48:50.860Z,59.26
2023-03-02T22:51:53.046Z,59.59
2023-03-02T22:54:55.319Z,60.22
2023-03-02T22:57:59.782Z,60.25
2023-03-02T23:01:03.290Z,60.22
2023-03-02T23:04:08.421Z,59.78
2023-03-02T23:07:19.512Z,59.71
2023-03-02T23:10:22.798Z,59.81
2023-03-02T23:13:36.781Z,58.87
2023-03-02T23:16:39.444Z,59.04
2023-03-02T23:19:41.908Z,59.24
2023-03-02T23:22:45.049Z,59.34
2023-03-02T23:25:47.356Z,58.75
2023-03-02T23:28:51.437Z,59.00
2023-03-02T23:31:54.550Z,59.26
2023-03-02T23:34:57.008Z,58.19
2023-03-02T23:38:01.455Z,58.28
2023-03-02T23:41:04.343Z,58.18
2023-03-02T23:44:13.495Z,58.43
2023-03-02T23:47:15.625Z,58.65
2023-03-02T23:50:17.706Z,57.69
2023-03-02T23:53:20.430Z,58.54
2023-03-02T23:56:23.630Z,59.02
2023-03-02T23:59:28.409Z,59.69
